Time;durP1;ratioP1;P1;durP2;ratioP2;P2;SDS_P1;SDS_P2;PMS_P1;PMS_P2;Temp;Humidity;BMP_temperature;BMP_pressure;BME280_temperature;BME280_humidity;BME280_pressure;Samples;Min_cycle;Max_cycle;Signal;HPM_P1;HPM_P2
2022/12/22 03:26:43;;;;;;;5.15;3.70;;;9.70;99.90;;;;;;5071092;28;20037;-75
2022/12/22 03:29:09;;;;;;;6.95;3.05;;;9.70;99.90;;;;;;5070297;28;20039;-75
2022/12/22 03:31:35;;;;;;;6.72;2.67;;;9.70;99.90;;;;;;5071293;28;20028;-76
2022/12/22 03:34:02;;;;;;;6.00;2.90;;;9.60;99.90;;;;;;5069196;28;20036;-74
2022/12/22 03:36:28;;;;;;;3.63;2.60;;;9.60;99.90;;;;;;5070718;28;20025;-75
2022/12/22 03:38:54;;;;;;;4.13;2.65;;;9.60;99.90;;;;;;5070692;28;20036;-75
2022/12/22 03:46:50;;;;;;;3.85;2.42;;;9.70;99.90;;;;;;5070601;28;20500;-75
2022/12/22 03:49:18;;;;;;;4.20;2.58;;;9.70;99.90;;;;;;5069942;28;20041;-75
2022/12/22 03:51:46;;;;;;;5.18;2.22;;;9.70;99.90;;;;;;5070805;28;20025;-75
2022/12/22 03:54:18;;;;;;;7.95;2.92;;;9.80;99.90;;;;;;5068702;28;20029;-77
2022/12/22 03:56:45;;;;;;;8.30;1.95;;;9.80;99.90;;;;;;5070931;28;20468;-75
2022/12/22 03:59:11;;;;;;;7.45;2.10;;;9.80;99.90;;;;;;5069684;28;20033;-75
2022/12/22 04:01:40;;;;;;;3.97;2.00;;;9.80;99.90;;;;;;5070867;28;20033;-75
2022/12/22 04:04:06;;;;;;;7.30;1.90;;;9.80;99.90;;;;;;5068812;28;20029;-74
2022/12/22 04:06:32;;;;;;;4.80;1.83;;;9.80;99.90;;;;;;5070945;28;20039;-76
2022/12/22 04:08:59;;;;;;;4.80;1.85;;;9.80;99.20;;;;;;5052778;28;20040;-76
2022/12/22 04:14:09;;;;;;;4.18;2.20;;;9.70;99.60;;;;;;5063970;28;20028;-75
2022/12/22 04:16:36;;;;;;;5.78;1.70;;;9.70;98.90;;;;;;5069583;28;20048;-77
2022/12/22 04:19:02;;;;;;;5.45;1.77;;;9.70;97.90;;;;;;5090755;28;20051;-75
2022/12/22 04:21:28;;;;;;;5.88;2.00;;;9.70;96.90;;;;;;5090363;28;20047;-74
2022/12/22 04:23:54;;;;;;;4.28;1.50;;;9.80;95.50;;;;;;5090772;28;20456;-76
2022/12/22 04:26:22;;;;;;;3.55;2.10;;;9.80;92.90;;;;;;5093549;28;20024;-76
2022/12/22 04:28:50;;;;;;;6.32;1.75;;;9.90;90.20;;;;;;5087934;28;20035;-77
2022/12/22 04:31:16;;;;;;;5.32;1.95;;;9.90;86.90;;;;;;5086944;28;20032;-76
2022/12/22 04:33:43;;;;;;;2.13;1.45;;;10.00;86.10;;;;;;5092922;28;20031;-77
2022/12/22 04:36:09;;;;;;;2.92;1.33;;;10.00;85.30;;;;;;5093431;28;20028;-78
2022/12/22 04:38:35;;;;;;;2.75;1.50;;;10.00;87.60;;;;;;5094104;28;20031;-78
2022/12/22 04:41:02;;;;;;;4.10;1.20;;;10.00;89.20;;;;;;5094160;28;20039;-77
2022/12/22 04:43:28;;;;;;;2.50;1.50;;;10.00;91.00;;;;;;5084634;28;20457;-75
2022/12/22 04:45:55;;;;;;;4.07;1.33;;;10.00;91.50;;;;;;5085100;28;20047;-80
2022/12/22 04:48:26;;;;;;;4.07;1.38;;;10.10;90.50;;;;;;5094068;28;20409;-76
2022/12/22 04:50:55;;;;;;;1.75;0.80;;;10.10;90.00;;;;;;5094288;28;20469;-77
2022/12/22 04:53:22;;;;;;;2.10;1.05;;;10.00;95.50;;;;;;5086111;28;20035;-75
2022/12/22 04:55:53;;;;;;;5.70;1.77;;;10.00;99.90;;;;;;5093063;28;20024;-76
2022/12/22 04:58:20;;;;;;;2.22;1.27;;;10.00;99.90;;;;;;5093551;28;20334;-77
2022/12/22 05:00:46;;;;;;;3.15;1.08;;;10.00;99.90;;;;;;5092391;28;20040;-75
2022/12/22 05:03:12;;;;;;;4.90;1.65;;;9.90;99.90;;;;;;5092770;28;20043;-76
2022/12/22 05:05:38;;;;;;;3.90;1.63;;;9.90;99.90;;;;;;5090992;28;20043;-79
2022/12/22 05:08:05;;;;;;;3.40;1.33;;;9.90;99.90;;;;;;5093395;28;20028;-75
2022/12/22 05:10:31;;;;;;;4.05;1.33;;;9.80;99.90;;;;;;5093300;28;20028;-77
2022/12/22 05:12:58;;;;;;;2.75;1.23;;;9.90;99.90;;;;;;5093572;28;20028;-77
2022/12/22 05:15:30;;;;;;;1.90;1.00;;;9.80;99.90;;;;;;5090839;28;20028;-77
2022/12/22 05:17:58;;;;;;;2.70;1.05;;;9.80;99.90;;;;;;5072992;28;20037;-78
2022/12/22 05:20:25;;;;;;;4.80;1.33;;;9.70;99.90;;;;;;5083343;28;20063;-78
2022/12/22 05:22:51;;;;;;;3.70;1.20;;;9.80;99.90;;;;;;5083255;28;20041;-79
2022/12/22 05:25:20;;;;;;;1.92;1.05;;;9.80;99.90;;;;;;5072668;28;20035;-76
2022/12/22 05:27:48;;;;;;;3.60;1.33;;;9.80;99.90;;;;;;5073811;28;20032;-76
2022/12/22 05:30:16;;;;;;;3.17;1.02;;;9.80;99.90;;;;;;5072501;28;20397;-75
2022/12/22 05:32:42;;;;;;;3.78;1.67;;;9.80;99.90;;;;;;5073657;28;20035;-78
2022/12/22 05:35:09;;;;;;;3.92;1.35;;;9.80;99.90;;;;;;5052733;28;20045;-76
2022/12/22 05:37:35;;;;;;;3.00;1.40;;;9.90;99.90;;;;;;5072983;28;20051;-77
2022/12/22 05:40:01;;;;;;;5.45;1.55;;;9.80;99.90;;;;;;5073228;28;20040;-77
2022/12/22 05:42:36;;;;;;;3.22;1.42;;;9.80;99.90;;;;;;5072085;28;20028;-77
2022/12/22 05:45:13;;;;;;;5.18;1.80;;;9.90;99.90;;;;;;5071549;28;20051;-76
2022/12/22 05:47:41;;;;;;;2.35;1.20;;;9.90;99.90;;;;;;5072334;28;20032;-76
2022/12/22 05:50:09;;;;;;;3.10;1.33;;;9.90;99.90;;;;;;5071987;28;20033;-75
2022/12/22 05:52:35;;;;;;;2.97;1.35;;;9.90;99.90;;;;;;5072646;28;20369;-78
2022/12/22 05:55:02;;;;;;;4.78;1.88;;;9.90;99.90;;;;;;5071225;28;20037;-78
2022/12/22 05:57:28;;;;;;;3.45;1.20;;;9.90;99.90;;;;;;5071879;28;20036;-78
2022/12/22 05:59:55;;;;;;;4.25;1.35;;;10.00;99.90;;;;;;5072245;28;20039;-77
2022/12/22 06:02:21;;;;;;;4.43;1.50;;;10.00;99.90;;;;;;5071771;28;20043;-78
2022/12/22 06:04:48;;;;;;;2.95;1.30;;;10.00;99.90;;;;;;5070899;28;20036;-77
2022/12/22 06:07:14;;;;;;;4.18;1.80;;;10.10;99.90;;;;;;5071467;28;20036;-77
2022/12/22 06:09:40;;;;;;;6.38;1.58;;;10.10;99.90;;;;;;5072653;28;20035;-77
2022/12/22 06:12:06;;;;;;;2.70;2.10;;;10.20;99.90;;;;;;5072506;28;20039;-79
2022/12/22 06:14:33;;;;;;;3.70;1.63;;;10.20;99.90;;;;;;5070086;28;20032;-80
2022/12/22 06:16:59;;;;;;;5.13;1.67;;;10.20;99.90;;;;;;5072458;28;20060;-77
2022/12/22 06:19:25;;;;;;;3.20;1.00;;;10.20;99.90;;;;;;5071163;28;20477;-80
2022/12/22 06:21:51;;;;;;;4.10;1.48;;;10.20;99.90;;;;;;5072429;28;20397;-79
2022/12/22 06:24:17;;;;;;;3.75;1.13;;;10.20;99.90;;;;;;5070006;28;20055;-78
2022/12/22 06:26:43;;;;;;;4.85;1.50;;;10.20;99.90;;;;;;5072203;28;20039;-82
2022/12/22 06:29:10;;;;;;;3.70;1.23;;;10.20;99.90;;;;;;5071808;28;20040;-76
2022/12/22 06:31:36;;;;;;;2.78;1.23;;;10.20;99.90;;;;;;5071530;28;20036;-79
2022/12/22 06:34:02;;;;;;;5.38;1.63;;;10.20;99.90;;;;;;5070216;28;20039;-81
2022/12/22 06:36:28;;;;;;;4.85;1.42;;;10.20;99.90;;;;;;5070900;28;20047;-79
2022/12/22 06:38:54;;;;;;;7.13;1.35;;;10.20;99.90;;;;;;5071444;28;20032;-79
2022/12/22 06:44:06;;;;;;;6.72;2.08;;;10.10;99.90;;;;;;5070478;28;20047;-78
2022/12/22 06:46:32;;;;;;;7.75;1.95;;;10.10;99.90;;;;;;5070417;28;20037;-78
2022/12/22 06:48:58;;;;;;;3.78;1.20;;;10.10;99.90;;;;;;5053302;28;20033;-79
2022/12/22 06:51:24;;;;;;;8.90;1.50;;;10.10;99.90;;;;;;5070921;28;20032;-79
2022/12/22 06:53:50;;;;;;;6.50;1.38;;;10.10;99.90;;;;;;5070263;28;20033;-79
2022/12/22 06:56:16;;;;;;;8.68;1.52;;;10.10;99.90;;;;;;5070485;28;20031;-79
2022/12/22 06:58:43;;;;;;;8.63;1.38;;;10.10;99.90;;;;;;5037201;28;20044;-79
2022/12/22 07:01:09;;;;;;;3.60;1.10;;;10.10;99.90;;;;;;5071452;28;20043;-77
2022/12/22 07:03:35;;;;;;;10.40;1.50;;;10.10;99.90;;;;;;5069547;28;20028;-78
2022/12/22 07:06:01;;;;;;;5.07;1.42;;;10.00;99.90;;;;;;5053796;28;20047;-79
2022/12/22 07:08:27;;;;;;;6.22;1.42;;;10.00;99.90;;;;;;5070566;28;20047;-79
2022/12/22 07:10:56;;;;;;;5.97;1.30;;;10.00;99.90;;;;;;5071496;28;20033;-79
2022/12/22 07:13:34;;;;;;;4.75;1.38;;;10.00;99.90;;;;;;5069487;28;20029;-78
2022/12/22 07:16:01;;;;;;;10.13;2.05;;;10.00;99.90;;;;;;5071238;28;20048;-80
2022/12/22 07:18:36;;;;;;;11.52;1.88;;;10.00;99.90;;;;;;5070643;28;20032;-78
2022/12/22 07:21:06;;;;;;;6.10;1.83;;;10.10;99.90;;;;;;5052845;28;20053;-81
2022/12/22 07:23:32;;;;;;;5.90;1.77;;;10.00;99.90;;;;;;5051034;28;20119;-79
2022/12/22 07:25:59;;;;;;;6.30;1.65;;;10.00;99.90;;;;;;5071088;28;20032;-78
2022/12/22 07:28:26;;;;;;;6.30;1.65;;;10.00;99.90;;;;;;5070286;28;20477;-78
2022/12/22 07:30:53;;;;;;;8.10;2.25;;;10.00;99.90;;;;;;5053542;28;20048;-79
2022/12/22 07:33:19;;;;;;;20.73;9.55;;;10.00;99.90;;;;;;5069111;28;20036;-80
2022/12/22 07:35:45;;;;;;;24.73;10.40;;;10.10;99.90;;;;;;5073744;28;20032;-80
2022/12/22 07:38:11;;;;;;;41.72;22.65;;;10.10;99.90;;;;;;5074799;28;20020;-76
2022/12/22 07:40:38;;;;;;;161.68;93.13;;;10.00;99.90;;;;;;5070645;28;20036;-81
2022/12/22 07:43:04;;;;;;;50.72;26.08;;;10.00;99.90;;;;;;5070767;28;20474;-81
2022/12/22 07:45:32;;;;;;;193.98;98.07;;;10.10;99.90;;;;;;5069265;28;20040;-81
2022/12/22 07:48:00;;;;;;;171.07;83.45;;;10.10;99.90;;;;;;5071404;28;20036;-80
2022/12/22 07:50:27;;;;;;;33.88;13.70;;;10.10;99.90;;;;;;5071084;28;20055;-81
2022/12/22 07:53:01;;;;;;;70.55;33.35;;;10.10;96.40;;;;;;5070923;28;20032;-78
2022/12/22 07:55:30;;;;;;;53.90;26.25;;;10.20;86.50;;;;;;5069350;28;20033;-80
2022/12/22 07:57:57;;;;;;;53.65;24.10;;;10.30;68.10;;;;;;5070791;28;20056;-81
2022/12/22 08:00:23;;;;;;;50.00;23.73;;;10.40;61.10;;;;;;5073598;28;20040;-81
2022/12/22 08:02:55;;;;;;;66.57;32.65;;;10.40;56.20;;;;;;5075078;28;20048;-79
2022/12/22 08:05:23;;;;;;;72.32;31.65;;;10.50;40.10;;;;;;5072722;28;20397;-80
2022/12/22 08:07:51;;;;;;;44.70;18.38;;;10.60;32.30;;;;;;5075163;28;20035;-80
2022/12/22 08:10:18;;;;;;;51.80;24.52;;;10.70;24.30;;;;;;5073664;28;20036;-79
2022/12/22 08:12:45;;;;;;;71.28;33.58;;;10.80;17.00;;;;;;5074643;28;20035;-80
2022/12/22 08:15:11;;;;;;;43.50;21.38;;;10.80;13.80;;;;;;5073264;28;20040;-81
2022/12/22 08:17:38;;;;;;;40.50;24.10;;;10.90;6.40;;;;;;5073179;28;20055;-80
2022/12/22 08:20:05;;;;;;;22.20;11.25;;;11.00;2.80;;;;;;5074639;28;20047;-77
2022/12/22 08:22:31;;;;;;;13.93;7.05;;;11.00;1.50;;;;;;5073766;28;20036;-79
2022/12/22 08:24:57;;;;;;;69.95;41.67;;;11.00;1.00;;;;;;5072811;28;20037;-79
2022/12/22 08:27:30;;;;;;;16.83;7.82;;;11.10;1.00;;;;;;5073563;28;20036;-78
2022/12/22 08:29:58;;;;;;;19.25;10.95;;;11.10;1.00;;;;;;5067896;28;20043;-78
2022/12/22 08:32:25;;;;;;;17.65;9.98;;;11.20;1.00;;;;;;5073035;28;20032;-78
2022/12/22 08:34:52;;;;;;;14.93;9.25;;;11.30;1.00;;;;;;5072630;28;20028;-79
2022/12/22 08:37:23;;;;;;;21.85;11.25;;;11.30;1.00;;;;;;5072796;28;20029;-78
2022/12/22 08:39:55;;;;;;;55.50;32.22;;;11.40;1.00;;;;;;5073655;28;20035;-78
2022/12/22 08:42:24;;;;;;;20.02;10.48;;;11.40;1.00;;;;;;5067571;28;20453;-77
2022/12/22 08:44:52;;;;;;;9.82;4.22;;;11.50;1.00;;;;;;5072275;28;20485;-79
2022/12/22 08:47:19;;;;;;;11.88;5.72;;;11.50;1.00;;;;;;5072791;28;20036;-78
2022/12/22 08:49:46;;;;;;;6.05;4.00;;;11.50;1.00;;;;;;5073953;28;20098;-78
2022/12/22 08:52:12;;;;;;;6.90;3.28;;;11.50;1.00;;;;;;5074118;28;20040;-77
2022/12/22 08:54:39;;;;;;;11.88;3.22;;;11.50;1.00;;;;;;5071524;28;20084;-78
2022/12/22 08:57:05;;;;;;;9.00;3.08;;;11.40;1.00;;;;;;5073874;28;20037;-77
2022/12/22 08:59:31;;;;;;;10.85;2.05;;;11.40;1.00;;;;;;5054895;28;20037;-75
2022/12/22 09:02:03;;;;;;;12.73;5.18;;;11.40;1.00;;;;;;5073850;28;20032;-79
2022/12/22 09:04:31;;;;;;;13.40;2.50;;;11.40;1.00;;;;;;5064064;28;20044;-77
2022/12/22 09:06:58;;;;;;;8.80;2.97;;;11.50;1.00;;;;;;5055401;28;20040;-80
2022/12/22 09:09:25;;;;;;;9.55;2.88;;;11.50;1.00;;;;;;5069435;28;20040;-79
2022/12/22 09:11:51;;;;;;;6.30;2.28;;;11.50;1.00;;;;;;5073792;28;20025;-81
2022/12/22 09:14:17;;;;;;;12.40;3.33;;;11.50;1.00;;;;;;5072254;28;20024;-76
2022/12/22 09:16:43;;;;;;;8.68;3.20;;;11.50;1.00;;;;;;5072225;28;20052;-78
2022/12/22 09:19:09;;;;;;;17.45;3.55;;;11.50;1.00;;;;;;5072719;28;20029;-81
2022/12/22 09:21:36;;;;;;;9.23;3.92;;;11.50;1.00;;;;;;5073550;28;20037;-81
2022/12/22 09:24:06;;;;;;;9.13;2.50;;;11.60;1.00;;;;;;5074153;28;20044;-78
2022/12/22 09:26:32;;;;;;;16.45;4.55;;;11.60;1.00;;;;;;5067631;28;20036;-78
2022/12/22 09:28:58;;;;;;;10.57;2.30;;;11.60;1.00;;;;;;5070409;28;20037;-78
2022/12/22 09:31:25;;;;;;;15.88;3.97;;;11.60;1.00;;;;;;5077181;28;20040;-76
2022/12/22 09:33:51;;;;;;;10.98;3.88;;;11.50;1.00;;;;;;5091889;28;20047;-77
2022/12/22 09:36:21;;;;;;;8.68;3.45;;;11.50;1.00;;;;;;5081280;28;20025;-78
2022/12/22 09:38:47;;;;;;;5.13;2.55;;;11.50;1.00;;;;;;5073352;28;20037;-79
2022/12/22 09:41:23;;;;;;;7.32;2.53;;;11.40;1.00;;;;;;5073525;28;20091;-78
2022/12/22 09:43:49;;;;;;;9.27;2.45;;;11.40;1.00;;;;;;5073771;28;20481;-78
2022/12/22 09:46:25;;;;;;;11.73;3.33;;;11.30;1.00;;;;;;5071540;28;20024;-78
2022/12/22 09:48:52;;;;;;;11.30;3.85;;;11.30;1.00;;;;;;5055734;28;20040;-78
2022/12/22 09:51:19;;;;;;;10.88;1.70;;;11.20;1.00;;;;;;5054298;28;20115;-79
2022/12/22 09:53:51;;;;;;;7.85;2.30;;;11.20;1.00;;;;;;5038980;28;20048;-78
2022/12/22 09:56:24;;;;;;;10.68;1.90;;;11.10;2.70;;;;;;5070974;28;20024;-79
2022/12/22 09:58:50;;;;;;;10.13;2.45;;;11.10;4.80;;;;;;5019668;28;20041;-78
2022/12/22 10:01:44;;;;;;;5.75;1.58;;;11.00;7.40;;;;;;5072126;28;20028;-79
2022/12/22 10:04:19;;;;;;;5.43;1.70;;;11.00;10.20;;;;;;5028085;28;20501;-77
2022/12/22 10:06:50;;;;;;;5.88;1.70;;;11.00;9.90;;;;;;5054260;28;20041;-78
2022/12/22 10:09:25;;;;;;;4.18;1.05;;;11.00;7.80;;;;;;5072250;28;20036;-79
2022/12/22 10:11:57;;;;;;;5.55;1.40;;;11.00;9.80;;;;;;5055137;28;20037;-78
2022/12/22 10:14:32;;;;;;;3.80;0.85;;;11.00;6.20;;;;;;5072334;28;20029;-82
2022/12/22 10:17:30;;;;;;;2.15;0.88;;;11.00;1.00;;;;;;5078482;28;20048;-80
2022/12/22 10:20:25;;;;;;;2.13;0.60;;;11.20;1.00;;;;;;5095984;28;20047;-79
2022/12/22 10:23:03;;;;;;;1.48;0.52;;;11.20;1.00;;;;;;5106890;28;20048;-79
2022/12/22 10:25:34;;;;;;;0.80;0.32;;;11.20;1.00;;;;;;5084921;28;20058;-79
2022/12/22 10:28:05;;;;;;;4.50;0.57;;;11.30;1.00;;;;;;5093051;28;20032;-80
2022/12/22 10:30:33;;;;;;;;;;;11.40;1.00;;;;;;5091310;28;20040;-79
2022/12/22 10:33:19;;;;;;;3.60;0.45;;;11.40;1.00;;;;;;5093069;28;19908;-79
2022/12/22 10:35:55;;;;;;;1.58;0.45;;;11.50;1.00;;;;;;5090072;28;20035;-79
2022/12/22 10:38:31;;;;;;;3.47;0.65;;;11.60;1.00;;;;;;5092185;28;20129;-80
2022/12/22 10:41:22;;;;;;;2.38;0.52;;;11.50;1.00;;;;;;5092611;28;20028;-78
2022/12/22 10:43:55;;;;;;;1.35;0.45;;;11.50;1.00;;;;;;5102716;28;20055;-78
2022/12/22 10:46:43;;;;;;;2.50;0.30;;;11.50;1.00;;;;;;5089560;28;20040;-77
2022/12/22 10:49:15;;;;;;;2.20;0.28;;;11.60;1.00;;;;;;5092109;28;20500;-79
2022/12/22 10:51:44;;;;;;;3.03;1.13;;;11.60;1.00;;;;;;5091082;28;20040;-78
2022/12/22 10:54:25;;;;;;;2.25;0.77;;;11.70;1.00;;;;;;5091647;28;20453;-77
2022/12/22 10:57:03;;;;;;;;;;;11.70;1.00;;;;;;5091764;28;20480;-81
2022/12/22 10:59:31;;;;;;;3.85;0.50;;;11.70;1.00;;;;;;5091400;28;19908;-78
2022/12/22 11:02:22;;;;;;;1.13;0.50;;;11.80;1.00;;;;;;5092027;28;20028;-78
2022/12/22 11:04:49;;;;;;;2.40;0.30;;;11.80;1.00;;;;;;5090734;28;20040;-78
2022/12/22 11:07:16;;;;;;;3.20;0.50;;;11.80;1.00;;;;;;5076210;28;20491;-79
2022/12/22 11:09:42;;;;;;;2.40;0.30;;;11.90;1.00;;;;;;5093409;28;20047;-79
2022/12/22 11:12:28;;;;;;;3.40;0.55;;;11.80;1.00;;;;;;5090837;28;20381;-79
2022/12/22 11:15:16;;;;;;;0.85;0.30;;;11.80;1.00;;;;;;5088957;28;20040;-80
2022/12/22 11:18:24;;;;;;;3.70;0.35;;;11.80;1.00;;;;;;5071087;28;20382;-78
2022/12/22 11:20:59;;;;;;;0.65;0.40;;;11.70;1.00;;;;;;5038964;28;20052;-79
2022/12/22 11:23:39;;;;;;;1.30;0.50;;;11.80;1.00;;;;;;5071210;28;20040;-79
2022/12/22 11:26:33;;;;;;;4.97;1.13;;;11.80;1.00;;;;;;5070249;28;20033;-79
2022/12/22 11:29:14;;;;;;;0.60;0.30;;;11.80;1.00;;;;;;5071597;28;20051;-78
2022/12/22 11:31:42;;;;;;;3.53;0.60;;;11.80;1.00;;;;;;5067071;28;20028;-78
2022/12/22 11:34:45;;;;;;;5.75;0.63;;;11.80;1.00;;;;;;5073516;28;20043;-79
2022/12/22 11:37:44;;;;;;;0.80;0.20;;;11.80;1.00;;;;;;5075781;28;20044;-77
2022/12/22 11:40:40;;;;;;;1.27;0.63;;;11.70;1.00;;;;;;5075426;28;20041;-77
2022/12/22 11:43:24;;;;;;;1.55;0.80;;;11.70;1.00;;;;;;5075420;28;20036;-78
2022/12/22 11:46:03;;;;;;;1.95;0.40;;;11.60;1.00;;;;;;5056296;28;20047;-80
2022/12/22 11:48:38;;;;;;;1.38;0.40;;;11.60;1.00;;;;;;5074891;28;20044;-79
2022/12/22 11:51:29;;;;;;;1.70;0.40;;;11.60;1.00;;;;;;5075034;28;20028;-79
2022/12/22 11:54:32;;;;;;;1.13;0.82;;;11.70;1.00;;;;;;5071181;28;20036;-79
2022/12/22 11:57:10;;;;;;;1.23;0.47;;;11.60;1.00;;;;;;5056933;28;20047;-78
2022/12/22 11:59:58;;;;;;;3.45;0.60;;;11.60;1.00;;;;;;5074154;28;20043;-79
2022/12/22 12:02:41;;;;;;;2.25;0.50;;;11.60;1.00;;;;;;5074130;28;20367;-79
2022/12/22 12:05:41;;;;;;;3.17;0.50;;;11.60;1.00;;;;;;5073551;28;20029;-78
2022/12/22 12:08:32;;;;;;;3.88;0.70;;;11.60;1.00;;;;;;5057254;28;20037;-75
2022/12/22 12:11:26;;;;;;;0.93;0.40;;;11.50;1.00;;;;;;5056991;28;20044;-76
2022/12/22 12:14:13;;;;;;;1.83;0.40;;;11.50;1.00;;;;;;5073770;28;20044;-77
2022/12/22 12:16:58;;;;;;;2.65;0.30;;;11.50;1.00;;;;;;5073996;28;20047;-78
2022/12/22 12:19:31;;;;;;;2.45;0.50;;;11.60;1.00;;;;;;5073957;28;20032;-77
2022/12/22 12:22:00;;;;;;;4.68;0.47;;;11.50;1.00;;;;;;5051139;28;20036;-79
2022/12/22 12:24:41;;;;;;;5.18;2.38;;;11.50;1.00;;;;;;5073536;28;20058;-78
2022/12/22 12:27:25;;;;;;;;;;;11.50;1.00;;;;;;5075449;28;20029;-78
2022/12/22 12:30:03;;;;;;;4.25;1.90;;;11.60;1.00;;;;;;5072794;28;19909;-77
2022/12/22 12:33:02;;;;;;;1.98;0.50;;;11.60;1.00;;;;;;5079183;28;20032;-79
2022/12/22 12:35:46;;;;;;;4.88;2.45;;;11.50;1.00;;;;;;4984523;28;20055;-77
2022/12/22 12:38:26;;;;;;;4.40;2.28;;;11.50;1.00;;;;;;5074752;28;20036;-77
2022/12/22 12:41:17;;;;;;;0.30;0.25;;;11.50;1.00;;;;;;5049430;28;20063;-78
2022/12/22 12:43:44;;;;;;;3.30;1.30;;;11.50;1.00;;;;;;5070677;28;20059;-77
2022/12/22 12:46:53;;;;;;;0.80;0.40;;;11.70;1.00;;;;;;5065823;28;20039;-78
2022/12/22 12:49:34;;;;;;;2.08;0.65;;;11.70;1.00;;;;;;5056619;28;20033;-78
2022/12/22 12:52:03;;;;;;;3.35;0.65;;;11.70;1.00;;;;;;5055752;28;20040;-76
2022/12/22 12:54:29;;;;;;;1.58;0.55;;;11.60;1.00;;;;;;5072555;28;20040;-78
2022/12/22 12:57:06;;;;;;;2.25;0.60;;;11.60;1.00;;;;;;5057300;28;20401;-77
2022/12/22 12:59:42;;;;;;;0.77;0.40;;;11.70;1.00;;;;;;5055380;28;20382;-76
2022/12/22 13:02:38;;;;;;;0.68;0.32;;;11.60;1.00;;;;;;5055896;28;20045;-78
2022/12/22 13:05:13;;;;;;;0.40;0.30;;;11.60;1.00;;;;;;5055991;28;20377;-77
2022/12/22 13:08:09;;;;;;;1.85;0.50;;;11.60;1.00;;;;;;5073431;28;20024;-77
2022/12/22 13:10:42;;;;;;;2.85;0.43;;;11.60;1.00;;;;;;5072606;28;20043;-77
2022/12/22 13:13:30;;;;;;;0.55;0.30;;;11.60;1.00;;;;;;5074172;28;20028;-74
2022/12/22 13:15:59;;;;;;;0.50;0.30;;;11.60;1.00;;;;;;5037041;28;20049;-77
2022/12/22 13:18:25;;;;;;;1.80;0.50;;;11.60;1.00;;;;;;5055655;28;20036;-78
2022/12/22 13:21:04;;;;;;;0.73;0.30;;;11.60;1.00;;;;;;5067554;28;20043;-79
2022/12/22 13:23:36;;;;;;;1.30;0.40;;;11.60;1.00;;;;;;5073529;28;20048;-78
2022/12/22 13:26:11;;;;;;;0.95;0.45;;;11.50;1.00;;;;;;5069042;28;20470;-79
2022/12/22 13:28:40;;;;;;;1.80;0.57;;;11.50;1.00;;;;;;5068049;28;20032;-79
2022/12/22 13:31:18;;;;;;;0.47;0.32;;;11.60;1.00;;;;;;5063941;28;20029;-79
2022/12/22 13:33:47;;;;;;;1.00;0.63;;;11.60;1.00;;;;;;5053520;28;20032;-77
2022/12/22 13:36:25;;;;;;;9.77;0.75;;;11.60;1.00;;;;;;5069410;28;20347;-76
2022/12/22 13:39:00;;;;;;;1.83;0.88;;;11.60;1.00;;;;;;5062037;28;20024;-76
2022/12/22 13:41:27;;;;;;;2.10;0.40;;;11.70;1.00;;;;;;5070880;28;20043;-76
2022/12/22 13:44:02;;;;;;;1.00;0.77;;;11.80;1.00;;;;;;5063803;28;20036;-78
2022/12/22 13:46:31;;;;;;;1.67;0.47;;;11.80;1.00;;;;;;5060211;28;20067;-77
2022/12/22 13:48:59;;;;;;;1.05;0.50;;;11.90;1.00;;;;;;5055626;28;20103;-77
2022/12/22 13:51:31;;;;;;;1.63;0.43;;;12.00;1.00;;;;;;5072208;28;20036;-78
2022/12/22 13:54:01;;;;;;;1.35;0.60;;;12.10;1.00;;;;;;5072857;28;20036;-77
2022/12/22 13:56:46;;;;;;;2.75;0.65;;;12.20;1.00;;;;;;5062785;28;20417;-76
2022/12/22 13:59:32;;;;;;;1.08;0.30;;;12.30;1.00;;;;;;5055372;28;20063;-78
2022/12/22 14:02:00;;;;;;;0.85;0.50;;;12.30;1.00;;;;;;5073190;28;20040;-82
2022/12/22 14:04:27;;;;;;;2.10;0.50;;;12.30;1.00;;;;;;5071902;28;20033;-78
2022/12/22 14:06:53;;;;;;;2.67;0.60;;;12.20;1.00;;;;;;5053533;28;20037;-79
2022/12/22 14:09:26;;;;;;;1.85;0.60;;;12.10;1.00;;;;;;5072744;28;20025;-78
2022/12/22 14:12:00;;;;;;;1.30;1.00;;;12.10;1.00;;;;;;5055223;28;20036;-76
2022/12/22 14:14:30;;;;;;;2.22;0.90;;;12.00;1.00;;;;;;5072753;28;20033;-77
2022/12/22 14:16:59;;;;;;;1.15;0.30;;;12.00;1.00;;;;;;5083151;28;20048;-78
2022/12/22 14:19:33;;;;;;;2.53;0.75;;;12.00;1.00;;;;;;5106614;28;20058;-74
2022/12/22 14:22:13;;;;;;;2.00;0.68;;;11.90;1.00;;;;;;5096953;28;20028;-76
2022/12/22 14:24:46;;;;;;;1.45;0.60;;;11.90;1.00;;;;;;5093453;28;20039;-80
2022/12/22 14:27:21;;;;;;;2.10;1.02;;;11.90;1.00;;;;;;5091117;28;20062;-80
2022/12/22 14:29:48;;;;;;;4.28;0.73;;;11.80;1.00;;;;;;5091929;28;20039;-77
2022/12/22 14:32:37;;;;;;;3.33;0.85;;;11.80;1.00;;;;;;5092334;28;20395;-77
2022/12/22 14:35:16;;;;;;;1.30;0.77;;;11.80;1.00;;;;;;5092548;28;20036;-76
2022/12/22 14:37:42;;;;;;;1.02;0.52;;;11.80;1.00;;;;;;5090492;28;20031;-75
2022/12/22 14:40:36;;;;;;;4.03;1.50;;;11.80;1.00;;;;;;5092170;28;20024;-77
2022/12/22 14:43:21;;;;;;;4.10;1.92;;;11.80;1.00;;;;;;5092273;28;20039;-77
2022/12/22 14:45:49;;;;;;;4.05;2.10;;;11.80;1.00;;;;;;5090664;28;20043;-78
2022/12/22 14:48:38;;;;;;;4.00;3.47;;;11.70;1.00;;;;;;5089566;28;20043;-77
2022/12/22 14:51:05;;;;;;;4.47;1.42;;;11.60;1.00;;;;;;5089950;28;20047;-76
2022/12/22 14:53:45;;;;;;;2.67;1.92;;;11.60;1.00;;;;;;5091590;28;20028;-76
2022/12/22 14:56:13;;;;;;;3.35;1.80;;;11.50;1.00;;;;;;5088812;28;20484;-76
2022/12/22 14:58:42;;;;;;;2.90;1.42;;;11.60;1.00;;;;;;5089584;28;20059;-78
2022/12/22 15:01:13;;;;;;;4.20;1.13;;;11.50;1.00;;;;;;5089598;28;20043;-76
2022/12/22 15:03:39;;;;;;;4.35;1.35;;;11.50;1.00;;;;;;5090993;28;20043;-75
2022/12/22 15:06:36;;;;;;;4.72;2.03;;;11.50;1.00;;;;;;5081224;28;20070;-75
2022/12/22 15:09:10;;;;;;;1.65;0.90;;;11.50;1.00;;;;;;5084168;28;20024;-76
2022/12/22 15:11:42;;;;;;;3.92;1.60;;;11.50;1.00;;;;;;5089599;28;20040;-77
2022/12/22 15:14:18;;;;;;;3.17;1.60;;;11.40;1.00;;;;;;5091716;28;20392;-76
2022/12/22 15:16:45;;;;;;;4.32;1.33;;;11.40;1.00;;;;;;5078272;28;20052;-77
2022/12/22 15:19:17;;;;;;;4.65;1.77;;;11.40;1.00;;;;;;5071180;28;20044;-77
2022/12/22 15:21:44;;;;;;;2.58;0.95;;;11.40;1.00;;;;;;5070776;28;20041;-77
2022/12/22 15:24:15;;;;;;;4.03;1.17;;;11.40;1.00;;;;;;5053125;28;20040;-75
2022/12/22 15:26:42;;;;;;;5.30;1.35;;;11.40;1.00;;;;;;5069231;28;20035;-77
2022/12/22 15:29:08;;;;;;;3.92;1.73;;;11.40;1.00;;;;;;5072200;28;20040;-81
2022/12/22 15:31:36;;;;;;;2.88;1.38;;;11.30;1.00;;;;;;5070969;28;20040;-78
2022/12/22 15:34:10;;;;;;;3.22;1.60;;;11.20;1.00;;;;;;5071436;28;20035;-80
2022/12/22 15:36:36;;;;;;;2.03;0.95;;;11.10;1.00;;;;;;5069651;28;20028;-78
2022/12/22 15:39:02;;;;;;;2.88;0.95;;;11.00;2.10;;;;;;5053364;28;20040;-75
2022/12/22 15:41:28;;;;;;;2.10;0.50;;;10.90;9.30;;;;;;5070195;28;20486;-78
2022/12/22 15:43:55;;;;;;;7.40;1.15;;;10.80;15.40;;;;;;5053381;28;20377;-78
2022/12/22 15:46:21;;;;;;;1.50;0.50;;;10.70;20.90;;;;;;5069104;28;20032;-73
2022/12/22 15:48:47;;;;;;;1.63;0.60;;;10.70;28.20;;;;;;5064368;28;20260;-75
2022/12/22 15:51:21;;;;;;;1.45;0.80;;;10.70;34.20;;;;;;5070843;28;20036;-75
2022/12/22 15:53:48;;;;;;;2.10;0.90;;;10.60;41.00;;;;;;5070423;28;20247;-76
2022/12/22 15:56:19;;;;;;;1.73;1.00;;;10.50;47.10;;;;;;5069892;28;20043;-74
2022/12/22 15:58:45;;;;;;;;;;;10.50;54.00;;;;;;5068629;28;20037;-74
2022/12/22 16:01:11;;;;;;;5.88;1.25;;;10.50;60.00;;;;;;5068948;28;19923;-75
2022/12/22 16:03:38;;;;;;;4.18;1.65;;;10.40;66.90;;;;;;5070228;28;20036;-76
2022/12/22 16:06:08;;;;;;;7.03;1.73;;;10.40;73.90;;;;;;5069383;28;20032;-76
2022/12/22 16:08:37;;;;;;;10.57;2.20;;;10.30;82.20;;;;;;5035268;28;20146;-76
2022/12/22 16:11:05;;;;;;;13.27;4.63;;;10.40;85.50;;;;;;5070846;28;20063;-76
2022/12/22 16:13:34;;;;;;;11.68;3.75;;;10.30;88.00;;;;;;5067718;28;20493;-76
2022/12/22 16:16:00;;;;;;;86.50;43.63;;;10.30;90.30;;;;;;5069571;28;20394;-73
2022/12/22 16:18:27;;;;;;;56.13;27.25;;;10.20;91.50;;;;;;5036141;28;20052;-75
2022/12/22 16:20:53;;;;;;;23.63;10.25;;;10.20;93.60;;;;;;5072772;28;20151;-75
2022/12/22 16:23:23;;;;;;;20.45;9.30;;;10.20;95.20;;;;;;5074773;28;20036;-76
2022/12/22 16:25:51;;;;;;;13.95;6.18;;;10.20;96.70;;;;;;5050473;28;20033;-76
2022/12/22 16:28:23;;;;;;;15.00;4.88;;;10.20;97.90;;;;;;5069195;28;20033;-76
2022/12/22 16:30:50;;;;;;;18.10;8.65;;;10.10;99.90;;;;;;5073745;28;20045;-76
2022/12/22 16:33:17;;;;;;;16.98;6.93;;;10.00;99.90;;;;;;5056137;28;20032;-76
2022/12/22 16:35:44;;;;;;;21.05;7.57;;;10.00;99.90;;;;;;5068253;28;20041;-76
2022/12/22 16:38:11;;;;;;;16.88;5.57;;;10.00;99.90;;;;;;5073331;28;20389;-76
2022/12/22 16:40:47;;;;;;;14.02;4.07;;;10.00;99.90;;;;;;5073432;28;20087;-76
2022/12/22 16:43:34;;;;;;;12.50;4.15;;;9.90;99.90;;;;;;5074756;28;20032;-76
2022/12/22 16:46:00;;;;;;;17.05;4.55;;;9.90;99.90;;;;;;5054673;28;20032;-76
2022/12/22 16:48:37;;;;;;;17.40;6.28;;;9.90;99.90;;;;;;5074368;28;20401;-76
2022/12/22 16:51:05;;;;;;;21.40;5.97;;;9.80;99.90;;;;;;5073941;28;20032;-75
2022/12/22 16:53:31;;;;;;;14.43;4.82;;;9.80;99.90;;;;;;5072490;28;20043;-75